Time,TemperatureF,DewpointF,PressureIn,WindDirection,WindDirectionDegrees,WindSpeedMPH,WindSpeedGustMPH,Humidity,HourlyPrecipIn,Conditions,Clouds,dailyrainin,SolarRadiationWatts/m^2,SoftwareType,DateUTC
2013-07-12 17:17:00,75.9,62.0,30.03,NE,45,0.0,3.1,62,0.00,,---,27.97,0.00,VWS V14.01,2013-07-12 21:17:00,
2013-07-12 17:22:00,75.9,62.0,30.03,NE,45,0.0,3.1,62,0.00,,---,27.97,0.00,VWS V14.01,2013-07-12 21:22:00,
2013-07-12 17:27:00,75.9,62.0,30.03,NE,45,0.0,0.0,62,0.00,,---,27.97,0.00,VWS V14.01,2013-07-12 21:27:00,
2013-07-12 17:32:00,75.9,62.0,30.15,NE,45,0.0,0.0,62,0.00,,---,27.97,0.00,VWS V14.01,2013-07-12 21:32:00,
2013-07-12 17:37:00,75.9,62.0,30.15,East,90,1.1,1.1,62,0.00,,---,27.97,0.00,VWS V14.01,2013-07-12 21:37:00,
2013-07-12 17:42:00,75.9,62.0,30.15,NE,45,1.1,1.1,62,0.00,,---,27.97,0.00,VWS V14.01,2013-07-12 21:42:00,
2013-07-12 17:47:00,75.9,62.0,30.12,NE,45,1.1,1.1,62,0.00,,---,27.97,0.00,VWS V14.01,2013-07-12 21:47:00,
2013-07-12 17:53:00,75.9,62.0,30.12,NE,45,1.1,1.1,62,0.00,,---,27.97,0.00,VWS V14.01,2013-07-12 21:53:00,
2013-07-12 17:58:00,75.9,62.0,30.15,SW,225,0.0,3.4,62,0.00,,---,27.97,0.00,VWS V14.01,2013-07-12 21:58:00,
2013-07-12 18:03:00,75.9,62.0,30.15,SW,225,0.0,3.4,62,0.00,,---,27.97,0.00,VWS V14.01,2013-07-12 22:03:00,
2013-07-12 18:08:00,70.7,69.5,30.12,NNE,22,2.5,4.0,96,0.16,,---,28.13,0.00,VWS V14.01,2013-07-12 22:08:00,
2013-07-12 18:36:00,69.8,68.6,30.15,NE,45,4.3,4.3,96,0.29,,---,28.26,0.00,VWS V14.01,2013-07-12 22:36:00,
2013-07-12 18:41:00,69.8,68.9,30.12,East,90,3.8,6.3,97,0.29,,---,28.26,0.00,VWS V14.01,2013-07-12 22:41:00,
2013-07-12 18:46:00,69.6,68.7,30.12,SE,135,5.8,8.1,97,0.29,,---,28.26,0.00,VWS V14.01,2013-07-12 22:46:00,
2013-07-12 18:51:00,69.6,68.7,30.12,NE,45,4.0,6.0,97,0.33,,---,28.30,0.00,VWS V14.01,2013-07-12 22:51:00,
2013-07-12 18:56:00,69.6,68.7,30.18,ENE,68,2.2,2.5,97,0.37,,---,28.34,0.00,VWS V14.01,2013-07-12 22:56:00,
2013-07-12 19:01:00,69.6,68.7,30.18,NE,45,2.9,2.9,97,0.25,,---,28.38,0.00,VWS V14.01,2013-07-12 23:01:00,
2013-07-12 19:06:00,69.4,68.6,30.18,NNE,22,3.4,5.4,97,0.29,,---,28.42,0.00,VWS V14.01,2013-07-12 23:06:00,
2013-07-12 19:11:00,69.4,68.6,30.12,NE,45,4.0,5.8,97,0.33,,---,28.46,0.00,VWS V14.01,2013-07-12 23:11:00,
2013-07-12 19:16:00,69.4,68.8,30.12,NE,45,4.3,8.1,98,0.33,,---,28.50,0.00,VWS V14.01,2013-07-12 23:16:00,
2013-07-12 19:22:00,69.3,68.7,30.12,NE,45,3.8,5.8,98,0.33,,---,28.54,0.00,VWS V14.01,2013-07-12 23:22:00,
2013-07-12 19:27:00,69.3,68.7,30.12,North,0,3.1,6.3,98,0.42,,---,28.63,0.00,VWS V14.01,2013-07-12 23:27:00,
2013-07-12 19:32:00,69.3,68.7,30.12,East,90,3.1,5.6,98,0.41,,---,28.67,0.00,VWS V14.01,2013-07-12 23:32:00,
2013-07-12 19:37:00,69.1,68.5,30.12,NNE,22,2.9,8.1,98,0.45,,---,28.71,0.00,VWS V14.01,2013-07-12 23:37:00,
2013-07-12 19:42:00,69.1,68.5,30.12,NE,45,1.6,10.1,98,0.49,,---,28.75,0.00,VWS V14.01,2013-07-12 23:42:00,
2013-07-12 19:48:00,69.1,68.5,30.12,NNE,22,6.5,10.1,98,0.49,,---,28.75,0.00,VWS V14.01,2013-07-12 23:48:00,
2013-07-12 19:53:00,69.1,68.5,30.12,North,0,3.1,7.4,98,0.50,,---,28.80,0.00,VWS V14.01,2013-07-12 23:53:00,
2013-07-12 19:58:00,68.9,68.3,30.15,North,0,2.7,10.3,98,0.46,,---,28.80,0.00,VWS V14.01,2013-07-12 23:58:00,
2013-07-12 20:03:00,68.9,68.3,30.15,NE,45,2.7,3.6,98,0.46,,---,28.84,0.00,VWS V14.01,2013-07-13 00:03:00,
2013-07-12 20:10:00,68.9,68.3,30.18,NE,45,3.6,4.0,98,0.46,,---,28.88,0.00,VWS V14.01,2013-07-13 00:10:00,
2013-07-12 20:15:00,68.9,68.3,30.18,NE,45,1.6,5.6,98,0.42,,---,28.88,0.00,VWS V14.01,2013-07-13 00:15:00,
2013-07-12 20:20:00,69.1,68.5,30.18,NNE,22,2.5,9.2,98,0.42,,---,28.92,0.00,VWS V14.01,2013-07-13 00:20:00,
2013-07-12 20:25:00,69.1,68.5,30.15,East,90,3.8,6.3,98,0.38,,---,28.92,0.00,VWS V14.01,2013-07-13 00:25:00,
2013-07-12 20:31:00,69.1,68.5,30.15,NE,45,4.9,6.3,98,0.38,,---,28.92,0.00,VWS V14.01,2013-07-13 00:31:00,
2013-07-12 20:37:00,69.1,68.5,30.15,NE,45,2.5,3.8,98,0.21,,---,28.92,0.00,VWS V14.01,2013-07-13 00:37:00,
2013-07-12 20:42:00,69.1,68.5,30.15,NE,45,3.8,6.5,98,0.21,,---,28.96,0.00,VWS V14.01,2013-07-13 00:42:00,
2013-07-12 20:47:00,69.1,68.5,30.15,East,90,2.9,2.9,98,0.16,,---,28.96,0.00,VWS V14.01,2013-07-13 00:47:00,
2013-07-12 20:52:00,69.1,68.5,30.15,East,90,4.3,4.3,98,0.20,,---,29.00,0.00,VWS V14.01,2013-07-13 00:52:00,
2013-07-12 20:58:00,69.1,68.5,30.12,NNW,338,1.6,3.6,98,0.24,,---,29.04,0.00,VWS V14.01,2013-07-13 00:58:00,
2013-07-12 21:03:00,69.1,68.5,30.12,NE,45,3.4,4.9,98,0.20,,---,29.04,0.00,VWS V14.01,2013-07-13 01:03:00,
2013-07-12 21:09:00,69.1,68.5,30.12,East,90,4.3,6.3,98,0.24,,---,29.08,0.00,VWS V14.01,2013-07-13 01:09:00,
2013-07-12 21:14:00,69.1,68.5,30.12,East,90,6.3,6.5,98,0.20,,---,29.08,0.00,VWS V14.01,2013-07-13 01:14:00,
2013-07-12 21:19:00,68.9,68.3,30.12,ENE,68,4.3,11.0,98,0.25,,---,29.13,0.00,VWS V14.01,2013-07-13 01:19:00,
2013-07-12 21:24:00,68.9,68.3,30.15,East,90,2.9,7.6,98,0.25,,---,29.17,0.00,VWS V14.01,2013-07-13 01:24:00,
2013-07-12 21:29:00,68.9,68.3,30.15,East,90,4.3,7.6,98,0.29,,---,29.21,0.00,VWS V14.01,2013-07-13 01:29:00,
2013-07-12 21:34:00,68.7,68.1,30.15,East,90,3.6,10.3,98,0.29,,---,29.21,0.00,VWS V14.01,2013-07-13 01:34:00,
2013-07-12 21:39:00,68.7,68.1,30.15,NE,45,5.6,10.5,98,0.29,,---,29.21,0.00,VWS V14.01,2013-07-13 01:39:00,
2013-07-12 21:44:00,68.7,68.1,30.15,NE,45,2.7,8.7,98,0.29,,---,29.25,0.00,VWS V14.01,2013-07-13 01:44:00,
2013-07-12 21:49:00,68.5,68.0,30.15,East,90,4.3,8.1,98,0.29,,---,29.25,0.00,VWS V14.01,2013-07-13 01:49:00,
2013-07-12 21:54:00,68.5,68.0,30.15,NNE,22,2.9,4.7,98,0.25,,---,29.25,0.00,VWS V14.01,2013-07-13 01:54:00,
2013-07-12 21:59:00,68.5,68.0,30.15,East,90,8.1,13.0,98,0.25,,---,29.25,0.00,VWS V14.01,2013-07-13 01:59:00,
2013-07-12 22:04:00,68.5,68.0,30.15,SE,135,3.4,9.8,98,0.21,,---,29.25,0.00,VWS V14.01,2013-07-13 02:04:00,
2013-07-12 22:10:00,68.5,68.0,30.15,NE,45,5.6,9.2,98,0.21,,---,29.25,0.00,VWS V14.01,2013-07-13 02:10:00,
2013-07-12 22:15:00,68.5,68.0,30.15,East,90,5.8,12.8,98,0.17,,---,29.25,0.00,VWS V14.01,2013-07-13 02:15:00,
2013-07-12 22:20:00,68.5,68.0,30.15,NE,45,3.4,8.5,98,0.17,,---,29.25,0.00,VWS V14.01,2013-07-13 02:20:00,
2013-07-12 22:26:00,68.5,68.0,30.18,East,90,5.8,8.7,98,0.12,,---,29.25,0.00,VWS V14.01,2013-07-13 02:26:00,
2013-07-12 22:31:00,68.5,68.0,30.18,SSW,202,7.2,7.2,98,0.04,,---,29.25,0.00,VWS V14.01,2013-07-13 02:31:00,
2013-07-12 22:36:00,68.4,67.8,30.18,East,90,3.8,3.8,98,0.08,,---,29.29,0.00,VWS V14.01,2013-07-13 02:36:00,
2013-07-12 22:41:00,68.4,67.8,30.15,NNE,22,3.6,3.8,98,0.08,,---,29.29,0.00,VWS V14.01,2013-07-13 02:41:00,
2013-07-12 22:46:00,68.4,67.8,30.15,East,90,2.9,4.0,98,0.04,,---,29.29,0.00,VWS V14.01,2013-07-13 02:46:00,
2013-07-12 22:51:00,68.4,67.8,30.15,NNW,338,3.8,4.3,98,0.04,,---,29.29,0.00,VWS V14.01,2013-07-13 02:51:00,
2013-07-12 22:56:00,68.4,67.8,30.15,East,90,2.5,3.4,98,0.04,,---,29.29,0.00,VWS V14.01,2013-07-13 02:56:00,
2013-07-12 23:01:00,68.4,67.8,30.15,North,0,7.4,7.4,98,0.04,,---,29.29,0.00,VWS V14.01,2013-07-13 03:01:00,
2013-07-12 23:07:00,68.4,67.8,30.15,NE,45,2.5,4.0,98,0.09,,---,29.34,0.00,VWS V14.01,2013-07-13 03:07:00,
2013-07-12 23:09:00,68.4,67.8,30.18,NE,45,10.5,10.5,98,0.09,,---,29.34,0.00,VWS V14.01,2013-07-13 03:09:00,